createdAt,value
2023-03-13T00:00:31.718Z,15.40
2023-03-13T00:01:31.703Z,15.20
2023-03-13T00:02:31.773Z,16.00
2023-03-13T00:03:31.726Z,12.80
2023-03-13T00:04:31.749Z,13.70
2023-03-13T00:05:32.736Z,15.70
2023-03-13T00:06:31.662Z,20.60
2023-03-13T00:07:31.648Z,12.80
2023-03-13T00:08:31.650Z,13.20
2023-03-13T00:09:31.652Z,16.70
2023-03-13T00:10:31.639Z,13.00
2023-03-13T00:11:31.659Z,17.00
2023-03-13T00:12:31.595Z,20.90
2023-03-13T00:13:31.589Z,19.30
2023-03-13T00:14:31.584Z,17.10
2023-03-13T00:15:31.582Z,15.60
2023-03-13T00:16:31.748Z,13.70
2023-03-13T00:17:31.550Z,13.70
2023-03-13T00:18:31.532Z,16.50
2023-03-13T00:19:31.532Z,18.20
2023-03-13T00:20:31.514Z,15.10
2023-03-13T00:21:31.530Z,15.00
2023-03-13T00:22:31.519Z,20.10
2023-03-13T00:23:31.497Z,14.70
2023-03-13T00:24:31.490Z,15.30
2023-03-13T00:25:31.478Z,16.70
2023-03-13T00:26:31.500Z,18.10
2023-03-13T00:27:31.465Z,16.90
2023-03-13T00:28:32.643Z,14.10
2023-03-13T00:29:32.465Z,14.60
2023-03-13T00:30:31.464Z,15.10
2023-03-13T00:31:31.587Z,14.70
2023-03-13T00:32:31.429Z,19.20
2023-03-13T00:33:31.470Z,14.80
2023-03-13T00:34:31.387Z,15.80
2023-03-13T00:35:31.412Z,17.90
2023-03-13T00:36:31.384Z,16.40
2023-03-13T00:37:31.348Z,14.80
2023-03-13T00:38:31.355Z,16.60
2023-03-13T00:39:31.340Z,14.20
2023-03-13T00:40:31.335Z,13.60
2023-03-13T00:41:31.344Z,14.00
2023-03-13T00:42:31.304Z,15.60
2023-03-13T00:43:31.288Z,16.10
2023-03-13T00:44:31.281Z,15.40
2023-03-13T00:45:31.286Z,15.60
2023-03-13T00:46:31.394Z,14.60
2023-03-13T00:47:31.249Z,13.40
2023-03-13T00:48:32.263Z,18.00
2023-03-13T00:49:31.228Z,12.90
2023-03-13T00:50:31.299Z,15.20
2023-03-13T00:51:31.203Z,19.90
2023-03-13T00:52:31.250Z,16.50
2023-03-13T00:53:31.215Z,13.90
2023-03-13T00:54:31.184Z,12.90
2023-03-13T00:55:31.188Z,13.90
2023-03-13T00:56:31.165Z,13.70
2023-03-13T00:57:31.182Z,14.90
2023-03-13T00:58:31.142Z,12.30
2023-03-13T00:59:31.131Z,12.50
2023-03-13T01:00:31.105Z,13.60
2023-03-13T01:01:31.106Z,13.80
2023-03-13T01:02:31.229Z,16.40
2023-03-13T01:03:31.131Z,13.10
2023-03-13T01:04:31.087Z,11.00
2023-03-13T01:05:31.120Z,14.80
2023-03-13T01:06:31.075Z,17.10
2023-03-13T01:07:31.043Z,13.00
2023-03-13T01:08:31.083Z,11.60
2023-03-13T01:09:31.026Z,13.70
2023-03-13T01:10:31.025Z,12.50
2023-03-13T01:11:31.015Z,14.30
2023-03-13T01:12:30.989Z,13.70
2023-03-13T01:13:31.035Z,12.40
2023-03-13T01:14:30.995Z,15.30
2023-03-13T01:15:30.989Z,15.70
2023-03-13T01:16:30.977Z,16.10
2023-03-13T01:17:30.968Z,19.30
2023-03-13T01:18:30.945Z,15.80
2023-03-13T01:19:30.936Z,16.30
2023-03-13T01:20:30.924Z,15.70
2023-03-13T01:21:30.938Z,16.00
2023-03-13T01:22:30.903Z,14.50
2023-03-13T01:23:30.893Z,12.90
2023-03-13T01:24:30.894Z,15.90
2023-03-13T01:25:30.884Z,15.50
2023-03-13T01:26:30.874Z,11.60
2023-03-13T01:27:30.876Z,14.80
2023-03-13T01:28:30.861Z,11.30
2023-03-13T01:29:30.860Z,13.00
2023-03-13T01:30:30.823Z,13.40
2023-03-13T01:31:30.894Z,12.70
2023-03-13T01:32:30.886Z,15.00
2023-03-13T01:33:30.805Z,15.30
2023-03-13T01:34:30.807Z,14.10
2023-03-13T01:35:30.829Z,13.30
2023-03-13T01:36:30.783Z,17.60
2023-03-13T01:38:02.685Z,14.10
2023-03-13T01:38:30.770Z,14.20
2023-03-13T01:39:30.778Z,17.60
2023-03-13T01:40:30.741Z,12.50
2023-03-13T01:41:30.726Z,16.40
2023-03-13T01:42:31.734Z,17.50
2023-03-13T01:43:30.744Z,12.40
2023-03-13T01:44:30.735Z,18.20
2023-03-13T01:45:30.719Z,11.20
2023-03-13T01:46:31.730Z,19.20
2023-03-13T01:47:30.671Z,14.80
2023-03-13T01:48:30.671Z,11.50
2023-03-13T01:49:30.718Z,12.10
2023-03-13T01:50:30.644Z,12.80
2023-03-13T01:51:30.635Z,14.70
2023-03-13T01:52:30.619Z,14.90
2023-03-13T01:53:30.634Z,14.60
2023-03-13T01:54:30.635Z,17.20
2023-03-13T01:55:30.595Z,14.00
2023-03-13T01:56:30.600Z,15.70
2023-03-13T01:57:30.577Z,14.40
2023-03-13T01:58:30.584Z,15.80
2023-03-13T01:59:30.608Z,15.20
2023-03-13T02:00:30.576Z,11.00
2023-03-13T02:01:30.678Z,16.50
2023-03-13T02:02:30.574Z,14.00
2023-03-13T02:03:30.527Z,13.30
2023-03-13T02:04:30.539Z,13.60
2023-03-13T02:05:30.505Z,13.10
2023-03-13T02:06:30.527Z,13.70
2023-03-13T02:07:30.495Z,11.40
2023-03-13T02:08:30.491Z,13.20
2023-03-13T02:09:30.482Z,12.20
2023-03-13T02:10:30.494Z,13.10
2023-03-13T02:11:30.468Z,13.30
2023-03-13T02:12:30.464Z,13.00
2023-03-13T02:13:30.443Z,15.00
2023-03-13T02:14:30.433Z,13.20
2023-03-13T02:15:30.422Z,13.40
2023-03-13T02:16:30.464Z,12.00
2023-03-13T02:17:30.402Z,13.30
2023-03-13T02:18:30.424Z,14.60
2023-03-13T02:19:30.408Z,11.60
2023-03-13T02:20:30.369Z,15.10
2023-03-13T02:21:30.385Z,11.60
2023-03-13T02:22:30.353Z,11.70
2023-03-13T02:23:30.340Z,13.50
2023-03-13T02:24:30.361Z,9.50
2023-03-13T02:25:30.334Z,16.20
2023-03-13T02:26:30.327Z,14.90
2023-03-13T02:27:30.292Z,9.40
2023-03-13T02:28:30.285Z,12.70
2023-03-13T02:29:30.285Z,10.20
2023-03-13T02:30:30.339Z,13.80
2023-03-13T02:31:30.314Z,14.80
2023-03-13T02:32:30.306Z,11.10
2023-03-13T02:33:30.260Z,12.40
2023-03-13T02:34:30.229Z,15.90
2023-03-13T02:35:30.300Z,14.10
2023-03-13T02:36:30.205Z,12.10
2023-03-13T02:37:30.224Z,10.50
2023-03-13T02:38:30.181Z,12.10
2023-03-13T02:39:30.207Z,10.00
2023-03-13T02:40:30.199Z,11.80
2023-03-13T02:41:30.197Z,12.80
2023-03-13T02:42:30.152Z,13.70
2023-03-13T02:43:30.135Z,14.90
2023-03-13T02:44:30.154Z,9.00
2023-03-13T02:45:30.156Z,13.40
2023-03-13T02:46:30.139Z,15.80
2023-03-13T02:47:30.097Z,13.60
2023-03-13T02:48:30.097Z,15.00
2023-03-13T02:49:30.080Z,13.50
2023-03-13T02:50:30.095Z,15.00
2023-03-13T02:51:30.057Z,16.50
2023-03-13T02:52:30.069Z,9.50
2023-03-13T02:53:30.062Z,12.90
2023-03-13T02:54:30.047Z,14.80
2023-03-13T02:55:30.010Z,13.80
2023-03-13T02:56:30.009Z,13.80
2023-03-13T02:57:29.992Z,15.00
2023-03-13T02:58:31.772Z,13.30
2023-03-13T02:59:30.008Z,12.60
2023-03-13T03:00:30.002Z,13.40
2023-03-13T03:01:29.968Z,11.70
2023-03-13T03:02:29.964Z,14.40
2023-03-13T03:03:29.975Z,13.00
2023-03-13T03:04:29.933Z,15.30
2023-03-13T03:05:29.982Z,14.00
2023-03-13T03:06:29.919Z,13.80
2023-03-13T03:07:30.002Z,14.20
2023-03-13T03:08:29.968Z,12.30
2023-03-13T03:09:29.899Z,12.50
2023-03-13T03:10:29.900Z,14.10
2023-03-13T03:11:29.929Z,13.30
2023-03-13T03:12:29.879Z,11.70
2023-03-13T03:13:29.857Z,12.40
2023-03-13T03:14:29.860Z,10.90
2023-03-13T03:15:29.825Z,14.70
2023-03-13T03:16:29.886Z,15.10
2023-03-13T03:17:29.810Z,13.30
2023-03-13T03:18:29.824Z,13.00
2023-03-13T03:19:29.850Z,11.20
2023-03-13T03:20:29.769Z,14.00
2023-03-13T03:21:29.758Z,12.20
2023-03-13T03:22:29.748Z,12.30
2023-03-13T03:23:29.769Z,14.40
2023-03-13T03:24:29.730Z,16.00
2023-03-13T03:25:29.750Z,16.90
2023-03-13T03:26:29.779Z,13.10
2023-03-13T03:27:29.695Z,13.20
2023-03-13T03:28:30.705Z,14.70
2023-03-13T03:29:29.704Z,9.10
2023-03-13T03:30:29.722Z,11.80
2023-03-13T03:31:29.696Z,14.50
2023-03-13T03:32:29.743Z,14.90
2023-03-13T03:33:29.637Z,11.20
2023-03-13T03:34:29.644Z,10.20
2023-03-13T03:35:29.618Z,11.30
2023-03-13T03:36:29.640Z,11.90
2023-03-13T03:37:29.623Z,11.00
2023-03-13T03:38:29.641Z,10.30
2023-03-13T03:39:29.591Z,11.80
2023-03-13T03:40:29.558Z,10.80
2023-03-13T03:41:29.585Z,11.40
2023-03-13T03:42:29.567Z,10.70
2023-03-13T03:43:29.558Z,12.60
2023-03-13T03:44:29.548Z,13.20
2023-03-13T03:45:29.698Z,8.80
2023-03-13T03:46:29.536Z,11.30
2023-03-13T03:47:29.532Z,10.80
2023-03-13T03:48:29.494Z,12.30
2023-03-13T03:49:29.497Z,12.00
2023-03-13T03:50:29.489Z,13.10
2023-03-13T03:51:29.459Z,10.40
2023-03-13T03:52:29.492Z,11.90
2023-03-13T03:53:29.469Z,10.40
2023-03-13T03:54:29.489Z,14.00
2023-03-13T03:55:29.426Z,9.50
2023-03-13T03:56:29.419Z,9.20
2023-03-13T03:57:29.461Z,11.30
2023-03-13T03:58:29.398Z,11.20
2023-03-13T03:59:29.403Z,11.10
2023-03-13T04:00:29.372Z,9.50
2023-03-13T04:01:29.358Z,12.20
2023-03-13T04:02:29.449Z,9.00
2023-03-13T04:03:29.387Z,9.90
2023-03-13T04:04:29.368Z,10.30
2023-03-13T04:05:29.355Z,12.00
2023-03-13T04:06:29.335Z,7.70
2023-03-13T04:07:29.294Z,7.80
2023-03-13T04:08:30.319Z,9.10
2023-03-13T04:09:31.840Z,10.00
2023-03-13T04:10:30.280Z,11.20
2023-03-13T04:11:29.362Z,11.50
2023-03-13T04:12:29.286Z,9.00
2023-03-13T04:13:29.274Z,8.40
2023-03-13T04:14:30.233Z,7.40
2023-03-13T04:15:29.261Z,10.30
2023-03-13T04:16:29.323Z,9.10
2023-03-13T04:17:29.220Z,7.40
2023-03-13T04:18:29.211Z,7.90
2023-03-13T04:19:29.193Z,9.10
2023-03-13T04:20:29.224Z,7.40
2023-03-13T04:21:29.170Z,7.80
2023-03-13T04:22:29.164Z,12.40
2023-03-13T04:23:29.250Z,10.30
2023-03-13T04:24:29.184Z,8.40
2023-03-13T04:25:29.162Z,11.20
2023-03-13T04:26:29.135Z,11.40
2023-03-13T04:27:29.129Z,9.50
2023-03-13T04:28:29.111Z,12.40
2023-03-13T04:29:29.114Z,9.50
2023-03-13T04:30:29.129Z,12.50
2023-03-13T04:31:29.101Z,8.70
2023-03-13T04:32:29.276Z,11.70
2023-03-13T04:33:29.072Z,7.90
2023-03-13T04:34:29.074Z,8.80
2023-03-13T04:35:29.090Z,10.50
2023-03-13T04:36:29.036Z,9.40
2023-03-13T04:37:29.034Z,10.10
2023-03-13T04:38:29.020Z,9.70
2023-03-13T04:39:29.430Z,12.90
2023-03-13T04:40:29.029Z,5.80
2023-03-13T04:41:29.055Z,6.40
2023-03-13T04:42:28.981Z,8.40
2023-03-13T04:43:29.002Z,9.00
2023-03-13T04:44:28.952Z,8.60
2023-03-13T04:45:28.929Z,10.20
2023-03-13T04:46:29.009Z,9.90
2023-03-13T04:47:28.941Z,8.60
2023-03-13T04:48:28.927Z,8.70
2023-03-13T04:49:28.906Z,11.30
2023-03-13T04:50:28.911Z,9.10
2023-03-13T04:51:28.893Z,7.10
2023-03-13T04:52:28.953Z,10.40
2023-03-13T04:53:28.858Z,8.20
2023-03-13T04:54:28.879Z,6.60
2023-03-13T04:55:28.838Z,10.90
2023-03-13T04:56:42.620Z,11.30
2023-03-13T04:57:30.914Z,10.10
2023-03-13T04:58:28.803Z,10.30
2023-03-13T04:59:28.811Z,8.90
2023-03-13T05:00:28.795Z,9.90
2023-03-13T05:01:28.786Z,8.40
2023-03-13T05:02:28.796Z,6.70
2023-03-13T05:03:28.792Z,7.20
2023-03-13T05:04:28.768Z,12.10
2023-03-13T05:05:28.800Z,13.90
2023-03-13T05:06:28.856Z,12.40
2023-03-13T05:07:28.811Z,10.80
2023-03-13T05:08:28.821Z,7.90
2023-03-13T05:09:28.710Z,10.10
2023-03-13T05:10:28.752Z,9.10
2023-03-13T05:11:28.680Z,9.30
2023-03-13T05:12:28.705Z,12.30
2023-03-13T05:13:28.679Z,9.30
2023-03-13T05:14:28.672Z,9.30
2023-03-13T05:15:28.659Z,9.10
2023-03-13T05:16:28.654Z,8.00
2023-03-13T05:17:28.634Z,11.30
2023-03-13T05:18:28.644Z,8.40
2023-03-13T05:19:28.600Z,9.40
2023-03-13T05:20:28.613Z,10.70
2023-03-13T05:21:28.596Z,9.00
2023-03-13T05:22:28.590Z,8.00
2023-03-13T05:23:28.587Z,8.30
2023-03-13T05:24:28.563Z,10.70
2023-03-13T05:25:28.573Z,8.50
2023-03-13T05:26:28.545Z,8.20
2023-03-13T05:27:29.559Z,9.10
2023-03-13T05:28:28.550Z,8.70
2023-03-13T05:29:28.512Z,7.00
2023-03-13T05:30:28.556Z,9.90
2023-03-13T05:31:28.605Z,10.70
2023-03-13T05:32:28.513Z,6.40
2023-03-13T05:33:28.521Z,6.20
2023-03-13T05:34:28.468Z,9.50
2023-03-13T05:35:28.477Z,5.10
2023-03-13T05:36:28.436Z,7.30
2023-03-13T05:37:28.424Z,5.40
2023-03-13T05:38:28.433Z,8.00
2023-03-13T05:39:28.470Z,5.90
2023-03-13T05:40:28.396Z,8.20
2023-03-13T05:41:28.400Z,10.30
2023-03-13T05:42:28.380Z,4.60
2023-03-13T05:43:28.372Z,4.70
2023-03-13T05:44:28.379Z,6.60
2023-03-13T05:45:28.354Z,6.60
2023-03-13T05:46:28.402Z,8.50
2023-03-13T05:47:28.323Z,6.90
2023-03-13T05:48:28.355Z,4.50
2023-03-13T05:49:28.314Z,5.90
2023-03-13T05:50:28.302Z,6.50
2023-03-13T05:51:28.356Z,6.00
2023-03-13T05:52:28.334Z,6.10
2023-03-13T05:53:28.261Z,8.80
2023-03-13T05:54:28.275Z,5.60
2023-03-13T05:55:28.331Z,6.30
2023-03-13T05:56:28.231Z,5.10
2023-03-13T05:57:28.254Z,4.70
2023-03-13T05:58:28.231Z,6.60
2023-03-13T05:59:28.206Z,7.60
2023-03-13T06:00:28.204Z,6.00
2023-03-13T06:01:28.221Z,6.90
2023-03-13T06:02:28.190Z,6.20
2023-03-13T06:03:28.322Z,3.80
2023-03-13T06:04:28.274Z,5.90
2023-03-13T06:05:28.161Z,5.40
2023-03-13T06:06:28.131Z,5.20
2023-03-13T06:07:28.152Z,5.80
2023-03-13T06:08:28.126Z,3.00
2023-03-13T06:09:28.103Z,5.70
2023-03-13T06:10:28.135Z,3.30
2023-03-13T06:11:28.088Z,4.30
2023-03-13T06:12:28.112Z,4.30
2023-03-13T06:13:28.058Z,6.70
2023-03-13T06:14:28.073Z,4.70
2023-03-13T06:15:28.048Z,3.90
2023-03-13T06:16:28.056Z,4.20
2023-03-13T06:17:28.028Z,5.10
2023-03-13T06:18:28.042Z,3.10
2023-03-13T06:19:28.008Z,4.00
2023-03-13T06:20:27.992Z,3.80
2023-03-13T06:21:27.990Z,4.70
2023-03-13T06:22:27.999Z,3.60
2023-03-13T06:23:28.007Z,3.80
2023-03-13T06:24:28.068Z,5.00
2023-03-13T06:25:27.963Z,2.50
2023-03-13T06:26:27.946Z,4.80
2023-03-13T06:27:27.922Z,2.70
2023-03-13T06:28:27.933Z,3.00
2023-03-13T06:29:27.994Z,2.60
2023-03-13T06:30:27.948Z,3.90
2023-03-13T06:31:27.954Z,4.10
2023-03-13T06:32:28.029Z,4.70
2023-03-13T06:33:28.003Z,3.50
2023-03-13T06:34:27.856Z,2.90
2023-03-13T06:35:27.868Z,3.80
2023-03-13T06:36:27.939Z,5.40
2023-03-13T06:37:27.836Z,4.30
2023-03-13T06:38:27.817Z,3.40
2023-03-13T06:39:27.848Z,4.80
2023-03-13T06:40:27.817Z,5.00
2023-03-13T06:41:27.792Z,3.70
2023-03-13T06:42:27.805Z,3.20
2023-03-13T06:43:27.783Z,4.40
2023-03-13T06:44:27.792Z,3.70
2023-03-13T06:45:27.840Z,4.60
2023-03-13T06:46:27.854Z,2.40
2023-03-13T06:47:27.793Z,3.90
2023-03-13T06:48:27.711Z,2.50
2023-03-13T06:49:27.715Z,3.40
2023-03-13T06:50:27.695Z,2.90
2023-03-13T06:51:27.696Z,3.90
2023-03-13T06:52:41.216Z,3.70
2023-03-13T06:53:29.713Z,3.00
2023-03-13T06:54:27.675Z,2.40
2023-03-13T06:55:27.653Z,2.70
2023-03-13T06:56:27.656Z,2.20
2023-03-13T06:57:27.666Z,1.90
2023-03-13T06:58:32.504Z,3.00
2023-03-13T06:59:28.614Z,2.10
2023-03-13T07:00:27.640Z,2.40
2023-03-13T07:01:27.635Z,3.60
2023-03-13T07:02:27.593Z,2.10
2023-03-13T07:03:27.639Z,2.10
2023-03-13T07:04:27.568Z,1.70
2023-03-13T07:05:27.614Z,3.10
2023-03-13T07:06:27.549Z,2.40
2023-03-13T07:07:32.068Z,1.80
2023-03-13T07:08:28.546Z,1.30
2023-03-13T07:09:27.514Z,2.50
2023-03-13T07:10:27.520Z,3.10
2023-03-13T07:11:27.565Z,3.90
2023-03-13T07:12:27.490Z,1.40
2023-03-13T07:13:27.488Z,1.80
2023-03-13T07:14:27.468Z,2.20
2023-03-13T07:15:27.460Z,2.10
2023-03-13T07:16:27.543Z,4.10
2023-03-13T07:17:27.538Z,2.40
2023-03-13T07:18:27.431Z,2.40
2023-03-13T07:19:27.436Z,2.50
2023-03-13T07:20:27.455Z,2.20
2023-03-13T07:21:27.458Z,2.00
2023-03-13T07:22:27.400Z,2.00
2023-03-13T07:23:27.447Z,1.30
2023-03-13T07:24:27.425Z,1.50
2023-03-13T07:25:27.360Z,1.60
2023-03-13T07:26:27.400Z,1.90
2023-03-13T07:27:27.482Z,1.10
2023-03-13T07:28:27.361Z,2.20
2023-03-13T07:29:27.317Z,1.00
2023-03-13T07:30:27.305Z,1.50
2023-03-13T07:31:27.375Z,1.20
2023-03-13T07:32:27.385Z,3.30
2023-03-13T07:33:27.311Z,1.20
2023-03-13T07:34:27.285Z,1.20
2023-03-13T07:35:27.252Z,1.50
2023-03-13T07:36:27.287Z,1.60
2023-03-13T07:37:27.254Z,2.20
2023-03-13T07:38:59.145Z,1.20
2023-03-13T07:39:27.234Z,1.40
2023-03-13T07:40:27.320Z,1.80
2023-03-13T07:41:27.244Z,0.70
2023-03-13T07:42:27.177Z,1.90
2023-03-13T07:43:27.184Z,1.60
2023-03-13T07:44:27.170Z,0.90
2023-03-13T07:45:27.345Z,1.50
2023-03-13T07:46:27.144Z,0.90
2023-03-13T07:47:27.167Z,1.50
2023-03-13T07:48:27.143Z,1.30
2023-03-13T07:49:27.114Z,2.10
2023-03-13T07:50:27.168Z,1.00
2023-03-13T07:51:42.105Z,1.10
2023-03-13T07:52:29.152Z,1.50
2023-03-13T07:53:27.127Z,0.80
2023-03-13T07:54:27.072Z,1.80
2023-03-13T07:55:27.066Z,1.40
2023-03-13T07:56:27.067Z,3.00
2023-03-13T07:57:27.027Z,1.30
2023-03-13T07:58:27.122Z,1.90
2023-03-13T07:59:27.031Z,1.60
2023-03-13T08:00:27.035Z,2.10
2023-03-13T08:01:29.870Z,4.70
2023-03-13T08:02:28.119Z,2.50
2023-03-13T08:03:27.032Z,2.20
2023-03-13T08:04:26.982Z,1.80
2023-03-13T08:05:27.959Z,3.00
2023-03-13T08:06:26.978Z,1.80
2023-03-13T08:07:26.983Z,3.20
2023-03-13T08:08:26.942Z,2.20
2023-03-13T08:09:26.933Z,2.20
2023-03-13T08:10:26.916Z,2.70
2023-03-13T08:11:26.909Z,4.70
2023-03-13T08:12:26.912Z,1.80
2023-03-13T08:13:26.891Z,2.30
2023-03-13T08:14:26.900Z,3.20
2023-03-13T08:15:26.892Z,2.00
2023-03-13T08:16:26.984Z,1.50
2023-03-13T08:17:26.831Z,1.60
2023-03-13T08:18:26.827Z,1.60
2023-03-13T08:19:26.858Z,2.60
2023-03-13T08:20:26.917Z,1.60
2023-03-13T08:21:26.810Z,2.40
2023-03-13T08:22:26.828Z,1.60
2023-03-13T08:23:26.784Z,2.80
2023-03-13T08:24:26.846Z,2.80
2023-03-13T08:25:26.764Z,1.70
2023-03-13T08:26:26.745Z,1.80
2023-03-13T08:27:26.753Z,1.80
2023-03-13T08:28:26.758Z,2.50
2023-03-13T08:29:26.776Z,1.60
2023-03-13T08:30:26.829Z,1.40
2023-03-13T08:31:26.715Z,1.40
2023-03-13T08:32:26.720Z,1.50
2023-03-13T08:33:26.691Z,1.40
2023-03-13T08:34:26.669Z,1.90
2023-03-13T08:35:26.710Z,1.80
2023-03-13T08:36:26.722Z,1.30
2023-03-13T08:37:26.706Z,2.30
2023-03-13T08:38:26.640Z,3.10
2023-03-13T08:39:26.707Z,2.00
2023-03-13T08:40:26.629Z,2.00
2023-03-13T08:41:26.623Z,1.40
2023-03-13T08:42:26.610Z,1.60
2023-03-13T08:43:26.625Z,1.80
2023-03-13T08:44:26.606Z,1.50
2023-03-13T08:45:26.583Z,1.90
2023-03-13T08:46:26.627Z,1.90
2023-03-13T08:47:27.636Z,1.10
2023-03-13T08:48:26.570Z,1.70
2023-03-13T08:49:26.529Z,2.10
2023-03-13T08:50:26.536Z,1.70
2023-03-13T08:51:26.520Z,1.70
2023-03-13T08:52:26.550Z,1.20
2023-03-13T08:53:27.526Z,2.10
2023-03-13T08:54:26.485Z,2.90
2023-03-13T08:55:26.662Z,2.30
2023-03-13T08:56:27.481Z,3.10
2023-03-13T08:57:26.476Z,1.70
2023-03-13T08:58:26.437Z,2.20
2023-03-13T08:59:26.459Z,2.90
2023-03-13T09:00:26.425Z,1.30
2023-03-13T09:01:26.439Z,2.20
2023-03-13T09:02:26.456Z,1.40
2023-03-13T09:03:26.440Z,1.80
2023-03-13T09:04:26.448Z,1.50
2023-03-13T09:05:26.377Z,2.30
2023-03-13T09:06:26.363Z,2.50
2023-03-13T09:07:26.376Z,2.70
2023-03-13T09:08:26.346Z,2.90
2023-03-13T09:09:26.354Z,1.70
2023-03-13T09:10:26.325Z,2.00
2023-03-13T09:11:26.317Z,2.30
2023-03-13T09:12:31.278Z,2.40
2023-03-13T09:13:27.353Z,3.90
2023-03-13T09:14:26.309Z,2.40
2023-03-13T09:15:26.282Z,2.20
2023-03-13T09:16:26.283Z,1.80
2023-03-13T09:17:26.259Z,1.40
2023-03-13T09:18:26.308Z,2.00
2023-03-13T09:19:26.293Z,1.70
2023-03-13T09:20:26.233Z,2.20
2023-03-13T09:21:26.225Z,1.80
2023-03-13T09:22:26.213Z,2.00
2023-03-13T09:23:26.242Z,2.20
2023-03-13T09:24:26.209Z,1.90
2023-03-13T09:25:26.215Z,2.20
2023-03-13T09:26:26.180Z,2.40
2023-03-13T09:27:26.184Z,2.50
2023-03-13T09:28:26.217Z,2.40
2023-03-13T09:29:26.142Z,4.50
2023-03-13T09:30:26.208Z,3.00
2023-03-13T09:31:26.167Z,2.50
2023-03-13T09:32:26.154Z,2.60
2023-03-13T09:33:26.105Z,2.70
2023-03-13T09:34:26.144Z,2.70
2023-03-13T09:35:26.087Z,3.00
2023-03-13T09:36:26.218Z,3.20
2023-03-13T09:37:27.068Z,4.00
2023-03-13T09:38:26.073Z,3.40
2023-03-13T09:39:26.074Z,2.60
2023-03-13T09:40:26.067Z,2.40
2023-03-13T09:41:26.042Z,2.90
2023-03-13T09:42:26.004Z,2.90
2023-03-13T09:43:26.022Z,3.70
2023-03-13T09:44:26.028Z,2.90
2023-03-13T09:45:25.992Z,2.60
2023-03-13T09:46:26.058Z,2.90
2023-03-13T09:47:25.973Z,2.00
2023-03-13T09:48:25.965Z,2.10
2023-03-13T09:49:25.984Z,2.80
2023-03-13T09:50:25.964Z,2.00
2023-03-13T09:51:26.001Z,1.60
2023-03-13T09:52:25.944Z,1.60
2023-03-13T09:53:25.912Z,2.30
2023-03-13T09:54:25.985Z,2.40
2023-03-13T09:55:25.886Z,1.70
2023-03-13T09:56:25.901Z,2.50
2023-03-13T09:57:25.860Z,1.80
2023-03-13T09:58:25.858Z,1.60
2023-03-13T09:59:25.848Z,2.10
2023-03-13T10:00:25.850Z,2.00
2023-03-13T10:01:25.906Z,2.60
2023-03-13T10:02:25.859Z,1.70
2023-03-13T10:03:25.844Z,2.20
2023-03-13T10:04:25.825Z,1.20
2023-03-13T10:05:25.791Z,1.20
2023-03-13T10:06:25.789Z,2.90
2023-03-13T10:07:25.764Z,1.10
2023-03-13T10:08:25.784Z,1.30
2023-03-13T10:09:25.816Z,1.40
2023-03-13T10:10:25.734Z,1.60
2023-03-13T10:11:25.732Z,1.70
2023-03-13T10:12:25.724Z,2.30
2023-03-13T10:13:25.729Z,3.20
2023-03-13T10:14:25.707Z,1.40
2023-03-13T10:15:25.736Z,2.70
2023-03-13T10:16:25.794Z,2.40
2023-03-13T10:17:25.672Z,1.30
2023-03-13T10:18:26.676Z,2.40
2023-03-13T10:19:25.661Z,1.30
2023-03-13T10:20:25.639Z,1.00
2023-03-13T10:21:25.647Z,1.10
2023-03-13T10:22:25.680Z,2.20
2023-03-13T10:23:25.617Z,2.90
2023-03-13T10:24:26.625Z,3.10
2023-03-13T10:25:25.594Z,1.70
2023-03-13T10:26:25.610Z,1.20
2023-03-13T10:27:25.579Z,1.10
2023-03-13T10:28:25.572Z,1.00
2023-03-13T10:29:25.578Z,3.40
2023-03-13T10:30:25.548Z,2.90
2023-03-13T10:31:25.560Z,3.30
2023-03-13T10:32:25.595Z,1.80
2023-03-13T10:33:25.522Z,1.90
2023-03-13T10:34:25.535Z,1.40
2023-03-13T10:35:25.545Z,1.70
2023-03-13T10:36:25.531Z,2.80
2023-03-13T10:37:25.498Z,1.70
2023-03-13T10:38:25.808Z,2.70
2023-03-13T10:39:26.474Z,1.60
2023-03-13T10:40:25.486Z,1.80
2023-03-13T10:41:25.480Z,1.90
2023-03-13T10:42:25.438Z,3.10
2023-03-13T10:43:25.426Z,1.70
2023-03-13T10:44:25.432Z,2.20
2023-03-13T10:45:25.643Z,1.50
2023-03-13T10:46:25.474Z,2.30
2023-03-13T10:47:25.412Z,2.50
2023-03-13T10:48:25.371Z,4.00
2023-03-13T10:49:25.391Z,2.10
2023-03-13T10:50:25.356Z,2.20
2023-03-13T10:51:25.346Z,2.00
2023-03-13T10:52:25.348Z,2.30
2023-03-13T10:53:25.347Z,3.60
2023-03-13T10:54:25.336Z,3.20
2023-03-13T10:55:25.348Z,3.30
2023-03-13T10:56:25.315Z,3.00
2023-03-13T10:57:25.371Z,2.70
2023-03-13T10:58:25.325Z,2.80
2023-03-13T10:59:25.283Z,4.60
2023-03-13T11:00:25.264Z,4.10
2023-03-13T11:01:25.256Z,3.30
2023-03-13T11:02:25.336Z,2.40
2023-03-13T11:03:25.384Z,1.50
2023-03-13T11:04:25.231Z,3.20
2023-03-13T11:05:25.217Z,2.40
2023-03-13T11:06:25.198Z,2.00
2023-03-13T11:07:25.238Z,2.50
2023-03-13T11:08:25.212Z,3.30
2023-03-13T11:09:25.177Z,3.70
2023-03-13T11:10:25.174Z,3.20
2023-03-13T11:11:25.140Z,4.60
2023-03-13T11:12:25.153Z,4.00
2023-03-13T11:13:36.121Z,2.60
2023-03-13T11:14:27.130Z,2.00
2023-03-13T11:15:25.198Z,3.10
2023-03-13T11:16:25.222Z,1.90
2023-03-13T11:17:25.146Z,2.70
2023-03-13T11:18:25.082Z,2.30
2023-03-13T11:19:25.069Z,3.90
2023-03-13T11:20:25.077Z,2.60
2023-03-13T11:21:25.062Z,2.50
2023-03-13T11:22:25.128Z,1.30
2023-03-13T11:23:25.069Z,2.60
2023-03-13T11:24:25.034Z,2.00
2023-03-13T11:25:25.008Z,3.40
2023-03-13T11:26:24.993Z,1.80
2023-03-13T11:27:25.031Z,2.40
2023-03-13T11:28:25.020Z,3.10
2023-03-13T11:29:25.025Z,1.80
2023-03-13T11:30:24.959Z,2.80
2023-03-13T11:31:25.068Z,1.80
2023-03-13T11:32:24.985Z,1.90
2023-03-13T11:33:24.934Z,1.80
2023-03-13T11:34:24.940Z,2.10
2023-03-13T11:35:24.900Z,1.90
2023-03-13T11:36:24.890Z,1.40
2023-03-13T11:37:24.906Z,3.50
2023-03-13T11:38:24.887Z,2.60
2023-03-13T11:39:24.888Z,2.00
2023-03-13T11:40:24.864Z,1.80
2023-03-13T11:41:24.956Z,2.60
2023-03-13T11:42:24.838Z,1.90
2023-03-13T11:43:26.069Z,1.90
2023-03-13T11:44:25.894Z,1.60
2023-03-13T11:45:24.861Z,2.20
2023-03-13T11:46:25.010Z,2.60
2023-03-13T11:47:24.787Z,2.70
2023-03-13T11:48:24.782Z,2.60
2023-03-13T11:49:24.794Z,3.20
2023-03-13T11:50:24.773Z,2.10
2023-03-13T11:51:24.829Z,2.10
2023-03-13T11:52:24.752Z,1.70
2023-03-13T11:53:24.730Z,1.50
2023-03-13T11:54:24.716Z,2.60
2023-03-13T11:55:25.747Z,3.50
2023-03-13T11:56:24.709Z,3.00
2023-03-13T11:57:24.711Z,2.90
2023-03-13T11:58:29.929Z,1.20
2023-03-13T11:59:24.688Z,1.90
2023-03-13T12:00:24.671Z,3.10
2023-03-13T12:01:24.671Z,1.90
2023-03-13T12:02:24.667Z,1.20
2023-03-13T12:03:24.693Z,1.60
2023-03-13T12:04:24.614Z,1.30
2023-03-13T12:05:24.679Z,1.10
2023-03-13T12:06:28.290Z,1.90
2023-03-13T12:07:25.585Z,2.00
2023-03-13T12:08:24.929Z,1.80
2023-03-13T12:09:26.129Z,1.50
2023-03-13T12:10:24.594Z,4.70
2023-03-13T12:11:24.569Z,1.20
2023-03-13T12:12:24.546Z,1.40
2023-03-13T12:13:24.578Z,1.40
2023-03-13T12:14:24.514Z,1.40
2023-03-13T12:15:24.518Z,2.90
2023-03-13T12:16:24.542Z,1.10
2023-03-13T12:17:24.589Z,3.00
2023-03-13T12:18:24.509Z,4.20
2023-03-13T12:19:24.479Z,6.90
2023-03-13T12:20:24.451Z,3.90
2023-03-13T12:21:24.462Z,3.30
2023-03-13T12:22:24.473Z,2.30
2023-03-13T12:23:24.637Z,1.90
2023-03-13T12:24:24.419Z,1.80
2023-03-13T12:25:24.601Z,1.70
2023-03-13T12:26:24.435Z,1.50
2023-03-13T12:27:24.417Z,2.60
2023-03-13T12:28:24.461Z,1.30
2023-03-13T12:29:24.400Z,1.40
2023-03-13T12:30:24.391Z,1.00
2023-03-13T12:31:24.361Z,1.80
2023-03-13T12:32:24.433Z,2.20
2023-03-13T12:33:24.328Z,3.70
2023-03-13T12:34:24.326Z,4.70
2023-03-13T12:35:24.352Z,2.50
2023-03-13T12:36:24.370Z,5.60
2023-03-13T12:37:24.320Z,5.70
2023-03-13T12:38:24.293Z,2.40
2023-03-13T12:39:24.312Z,1.70
2023-03-13T12:40:24.276Z,1.60
2023-03-13T12:41:24.270Z,2.40
2023-03-13T12:42:24.261Z,8.20
2023-03-13T12:43:24.267Z,15.40
2023-03-13T12:44:24.232Z,2.50
2023-03-13T12:45:24.326Z,4.50
2023-03-13T12:46:24.287Z,13.60
2023-03-13T12:47:25.859Z,7.50
2023-03-13T12:48:24.236Z,11.60
2023-03-13T12:49:24.192Z,8.30
2023-03-13T12:50:24.196Z,9.60
2023-03-13T12:51:24.179Z,3.80
2023-03-13T12:52:24.159Z,2.30
2023-03-13T12:53:24.143Z,1.80
2023-03-13T12:54:24.130Z,2.50
2023-03-13T12:55:24.141Z,8.20
2023-03-13T12:56:24.119Z,2.40
2023-03-13T12:57:24.099Z,6.60
2023-03-13T12:58:24.109Z,3.00
2023-03-13T12:59:24.090Z,3.10
2023-03-13T13:00:24.151Z,2.40
2023-03-13T13:01:24.110Z,2.00
2023-03-13T13:02:24.047Z,2.00
2023-03-13T13:03:24.026Z,2.00
2023-03-13T13:04:24.139Z,1.20
2023-03-13T13:05:24.032Z,2.10
2023-03-13T13:06:24.003Z,1.70
2023-03-13T13:07:24.026Z,2.10
2023-03-13T13:08:24.013Z,4.60
2023-03-13T13:09:23.980Z,3.10